Terminal Aerodrome Forecast
Issued by NWS Cleveland, OH

Home | Current Version | Previous Version | Text Only | Print | Product List | Glossary On
Versions: 1 2 3 4 5 6 7 8 9 10 11 12 13 14 15 16 17 18 19 20 21 22 23 24 25 26 27
000
FTUS41 KCLE 020200 AAA
TAFMFD
TAF AMD
KMFD 020257Z 0203/0224 14004KT 2SM BR SCT250
      TEMPO 0206/0209 1/2SM FG SCT002
     FM021400 18008KT P6SM SCT100 BKN200
     FM022300 15008KT P6SM FEW050 BKN150=

USA.gov is the U.S. government's official web portal to all federal, state and local government web resources and services.